createdAt,value
2019-05-09T00:00:34.722Z,0.00
2019-05-09T00:01:34.758Z,0.00
2019-05-09T00:02:34.797Z,0.00
2019-05-09T00:03:34.841Z,0.00
2019-05-09T00:04:34.910Z,0.00
2019-05-09T00:05:34.939Z,0.00
2019-05-09T00:06:34.979Z,0.00
2019-05-09T00:07:35.038Z,0.00
2019-05-09T00:08:35.070Z,0.00
2019-05-09T00:09:35.141Z,0.00
2019-05-09T00:10:39.312Z,0.00
2019-05-09T00:11:35.205Z,0.00
2019-05-09T00:12:35.251Z,0.00
2019-05-09T00:13:35.298Z,0.00
2019-05-09T00:14:35.365Z,0.00
2019-05-09T00:15:35.401Z,0.00
2019-05-09T00:16:35.435Z,0.00
2019-05-09T00:17:35.479Z,0.00
2019-05-09T00:18:35.524Z,0.00
2019-05-09T00:19:35.603Z,0.00
2019-05-09T00:20:35.632Z,0.00
2019-05-09T00:21:35.663Z,0.00
2019-05-09T00:22:35.707Z,0.00
2019-05-09T00:23:35.758Z,0.00
2019-05-09T00:24:35.820Z,0.00
2019-05-09T00:25:35.863Z,0.00
2019-05-09T00:26:35.893Z,0.00
2019-05-09T00:27:35.939Z,0.00
2019-05-09T00:28:36.167Z,0.00
2019-05-09T00:29:36.052Z,0.00
2019-05-09T00:30:36.095Z,0.00
2019-05-09T00:31:36.119Z,0.00
2019-05-09T00:32:36.168Z,0.00
2019-05-09T00:33:36.208Z,0.00
2019-05-09T00:34:36.252Z,0.00
2019-05-09T00:35:36.334Z,0.00
2019-05-09T00:36:36.347Z,0.00
2019-05-09T00:37:36.392Z,0.00
2019-05-09T00:38:36.445Z,0.00
2019-05-09T00:39:36.488Z,0.00
2019-05-09T00:40:36.551Z,0.00
2019-05-09T00:41:36.589Z,0.00
2019-05-09T00:42:36.619Z,0.00
2019-05-09T00:43:36.667Z,0.00
2019-05-09T00:44:36.761Z,0.00
2019-05-09T00:45:36.782Z,0.00
2019-05-09T00:46:36.805Z,0.00
2019-05-09T00:47:36.849Z,0.00
2019-05-09T00:48:36.891Z,0.00
2019-05-09T00:49:36.941Z,0.00
2019-05-09T00:50:37.002Z,0.00
2019-05-09T00:51:37.055Z,0.00
2019-05-09T00:52:37.073Z,0.00
2019-05-09T00:53:37.125Z,0.00
2019-05-09T00:54:37.163Z,0.00
2019-05-09T00:55:37.239Z,0.00
2019-05-09T00:56:37.266Z,0.00
2019-05-09T00:57:37.301Z,0.00
2019-05-09T00:58:37.351Z,0.00
2019-05-09T00:59:37.404Z,0.00
2019-05-09T01:00:37.490Z,0.00
2019-05-09T01:01:37.484Z,0.00
2019-05-09T01:02:37.530Z,0.00
2019-05-09T01:03:37.573Z,0.00
2019-05-09T01:04:37.626Z,0.00
2019-05-09T01:05:37.685Z,0.00
2019-05-09T01:06:37.738Z,0.00
2019-05-09T01:07:37.767Z,0.00
2019-05-09T01:08:37.808Z,0.00
2019-05-09T01:09:37.850Z,0.00
2019-05-09T01:10:37.893Z,0.00
2019-05-09T01:11:37.977Z,0.00
2019-05-09T01:12:37.979Z,0.00
2019-05-09T01:13:38.030Z,0.00
2019-05-09T01:14:38.149Z,0.00
2019-05-09T01:15:38.116Z,0.00
2019-05-09T01:16:38.182Z,0.00
2019-05-09T01:17:38.216Z,0.00
2019-05-09T01:18:38.267Z,0.00
2019-05-09T01:19:38.299Z,0.00
2019-05-09T01:20:38.344Z,0.00
2019-05-09T01:21:38.422Z,0.00
2019-05-09T01:22:38.443Z,0.00
2019-05-09T01:23:38.481Z,0.00
2019-05-09T01:24:38.526Z,0.00
2019-05-09T01:25:38.572Z,0.00
2019-05-09T01:26:38.635Z,0.00
2019-05-09T01:27:38.677Z,0.00
2019-05-09T01:28:38.704Z,0.00
2019-05-09T01:29:38.760Z,0.00
2019-05-09T01:30:38.796Z,0.00
2019-05-09T01:31:38.847Z,0.00
2019-05-09T01:32:38.916Z,0.00
2019-05-09T01:33:38.932Z,0.00
2019-05-09T01:34:38.982Z,0.00
2019-05-09T01:35:39.022Z,0.00
2019-05-09T01:36:39.068Z,0.00
2019-05-09T01:37:39.135Z,0.00
2019-05-09T01:38:39.158Z,0.00
2019-05-09T01:39:39.268Z,0.00
2019-05-09T01:40:39.246Z,0.00
2019-05-09T01:41:39.301Z,0.00
2019-05-09T01:42:39.365Z,0.00
2019-05-09T01:43:39.382Z,0.00
2019-05-09T01:44:39.426Z,0.00
2019-05-09T01:45:39.482Z,0.00
2019-05-09T01:46:39.619Z,0.00
2019-05-09T01:47:39.586Z,0.00
2019-05-09T01:48:39.618Z,0.00
2019-05-09T01:49:39.649Z,0.00
2019-05-09T01:50:39.698Z,0.00
2019-05-09T01:51:39.741Z,0.00
2019-05-09T01:52:39.814Z,0.00
2019-05-09T01:53:39.830Z,0.00
2019-05-09T01:54:39.874Z,0.00
2019-05-09T01:55:39.921Z,0.00
2019-05-09T01:56:39.962Z,0.00
2019-05-09T01:57:40.032Z,0.00
2019-05-09T01:58:40.059Z,0.00
2019-05-09T01:59:40.097Z,0.00
2019-05-09T02:00:40.142Z,0.00
2019-05-09T02:01:40.186Z,0.00
2019-05-09T02:02:40.256Z,0.00
2019-05-09T02:03:40.300Z,0.00
2019-05-09T02:04:40.325Z,0.00
2019-05-09T02:05:40.364Z,0.00
2019-05-09T02:06:40.411Z,0.00
2019-05-09T02:07:40.458Z,0.00
2019-05-09T02:08:40.516Z,0.00
2019-05-09T02:09:40.544Z,0.00
2019-05-09T02:10:40.591Z,0.00
2019-05-09T02:11:43.343Z,0.00
2019-05-09T02:12:42.530Z,0.00
2019-05-09T02:13:40.743Z,0.00
2019-05-09T02:14:40.773Z,0.00
2019-05-09T02:15:40.812Z,0.00
2019-05-09T02:16:43.119Z,0.00
2019-05-09T02:17:54.882Z,0.00
2019-05-09T02:18:40.965Z,0.00
2019-05-09T02:19:40.988Z,0.00
2019-05-09T02:20:41.036Z,0.00
2019-05-09T02:21:41.080Z,0.00
2019-05-09T02:22:43.378Z,0.00
2019-05-09T02:23:43.096Z,0.00
2019-05-09T02:24:41.241Z,0.00
2019-05-09T02:25:41.257Z,0.00
2019-05-09T02:26:43.750Z,0.00
2019-05-09T02:27:43.505Z,0.00
2019-05-09T02:28:43.254Z,0.00
2019-05-09T02:29:41.452Z,0.00
2019-05-09T02:30:44.749Z,0.00
2019-05-09T02:31:44.584Z,0.00
2019-05-09T02:32:44.738Z,0.00
2019-05-09T02:33:45.104Z,0.00
2019-05-09T02:34:44.091Z,0.00
2019-05-09T02:35:52.893Z,0.00
2019-05-09T02:36:41.749Z,0.00
2019-05-09T02:37:41.788Z,0.00
2019-05-09T02:38:41.843Z,0.00
2019-05-09T02:39:41.902Z,0.00
2019-05-09T02:40:41.930Z,0.00
2019-05-09T02:41:59.536Z,0.00
2019-05-09T02:42:42.012Z,0.00
2019-05-09T02:43:42.056Z,0.00
2019-05-09T02:44:42.121Z,0.00
2019-05-09T02:45:42.148Z,0.00
2019-05-09T02:46:42.189Z,0.00
2019-05-09T02:47:42.235Z,0.00
2019-05-09T02:48:42.311Z,0.00
2019-05-09T02:49:42.390Z,0.00
2019-05-09T02:50:42.388Z,0.00
2019-05-09T02:51:42.407Z,0.00
2019-05-09T02:52:42.453Z,0.00
2019-05-09T02:53:42.499Z,0.00
2019-05-09T02:54:42.541Z,0.00
2019-05-09T02:55:42.715Z,0.00
2019-05-09T02:56:42.630Z,0.00
2019-05-09T02:57:42.672Z,0.00
2019-05-09T02:58:42.725Z,0.00
2019-05-09T02:59:42.764Z,0.00
2019-05-09T03:00:42.848Z,0.00
2019-05-09T03:01:42.855Z,0.00
2019-05-09T03:02:42.971Z,0.00
2019-05-09T03:03:42.938Z,0.00
2019-05-09T03:04:42.990Z,0.00
2019-05-09T03:05:43.052Z,0.00
2019-05-09T03:06:43.094Z,0.00
2019-05-09T03:07:43.113Z,0.00
2019-05-09T03:08:43.159Z,0.00
2019-05-09T03:09:43.276Z,0.00
2019-05-09T03:10:43.272Z,0.00
2019-05-09T03:11:43.291Z,0.00
2019-05-09T03:12:43.334Z,0.00
2019-05-09T03:13:43.383Z,0.00
2019-05-09T03:14:43.423Z,0.00
2019-05-09T03:15:43.486Z,0.00
2019-05-09T03:16:43.536Z,0.00
2019-05-09T03:17:43.557Z,0.00
2019-05-09T03:18:43.609Z,0.00
2019-05-09T03:19:43.644Z,0.00
2019-05-09T03:20:43.711Z,0.00
2019-05-09T03:21:43.750Z,0.00
2019-05-09T03:22:43.775Z,4.00
2019-05-09T03:23:43.818Z,4.00
2019-05-09T03:24:43.862Z,4.00
2019-05-09T03:25:43.933Z,4.00
2019-05-09T03:26:43.977Z,4.00
2019-05-09T03:27:43.999Z,8.00
2019-05-09T03:28:44.039Z,8.00
2019-05-09T03:29:44.080Z,8.00
2019-05-09T03:30:44.126Z,8.00
2019-05-09T03:31:44.193Z,12.00
2019-05-09T03:32:44.246Z,12.00
2019-05-09T03:33:44.257Z,20.00
2019-05-09T03:34:44.298Z,20.00
2019-05-09T03:35:44.343Z,24.00
2019-05-09T03:36:44.411Z,24.00
2019-05-09T03:37:44.430Z,32.00
2019-05-09T03:38:44.485Z,36.00
2019-05-09T03:39:44.533Z,40.00
2019-05-09T03:40:44.572Z,48.00
2019-05-09T03:41:44.639Z,56.00
2019-05-09T03:42:44.663Z,64.00
2019-05-09T03:43:44.690Z,72.00
2019-05-09T03:44:44.734Z,80.00
2019-05-09T03:45:44.777Z,92.00
2019-05-09T03:46:47.021Z,108.00
2019-05-09T03:47:44.866Z,116.00
2019-05-09T03:48:44.910Z,132.00
2019-05-09T03:49:44.955Z,152.00
2019-05-09T03:50:45.003Z,164.00
2019-05-09T03:51:45.063Z,184.00
2019-05-09T03:52:45.104Z,204.00
2019-05-09T03:53:45.159Z,224.00
2019-05-09T03:54:45.172Z,244.00
2019-05-09T03:55:47.267Z,268.00
2019-05-09T03:56:45.280Z,292.00
2019-05-09T03:57:47.500Z,316.00
2019-05-09T03:58:47.376Z,344.00
2019-05-09T03:59:45.388Z,376.00
2019-05-09T04:00:47.770Z,408.00
2019-05-09T04:01:47.827Z,440.00
2019-05-09T04:02:47.431Z,472.00
2019-05-09T04:03:47.977Z,508.00
2019-05-09T04:04:47.431Z,544.00
2019-05-09T04:05:56.675Z,584.00
2019-05-09T04:06:47.917Z,620.00
2019-05-09T04:07:47.661Z,656.00
2019-05-09T04:08:48.030Z,696.00
2019-05-09T04:09:47.865Z,732.00
2019-05-09T04:10:46.969Z,768.00
2019-05-09T04:11:48.349Z,804.00
2019-05-09T04:12:53.907Z,844.00
2019-05-09T04:13:47.644Z,880.00
2019-05-09T04:14:47.971Z,920.00
2019-05-09T04:15:47.709Z,960.00
2019-05-09T04:16:47.774Z,996.00
2019-05-09T04:17:47.555Z,1032.00
2019-05-09T04:18:47.983Z,1072.00
2019-05-09T04:19:47.928Z,1116.00
2019-05-09T04:20:48.210Z,1156.00
2019-05-09T04:21:48.281Z,1192.00
2019-05-09T04:22:48.786Z,1244.00
2019-05-09T04:23:48.073Z,1300.00
2019-05-09T04:24:47.394Z,1348.00
2019-05-09T04:25:47.945Z,1376.00
2019-05-09T04:26:48.377Z,1404.00
2019-05-09T04:27:47.999Z,1432.00
2019-05-09T04:28:47.256Z,1464.00
2019-05-09T04:29:48.380Z,1496.00
2019-05-09T04:30:47.775Z,1532.00
2019-05-09T04:31:48.310Z,1560.00
2019-05-09T04:32:48.105Z,1592.00
2019-05-09T04:33:47.360Z,1620.00
2019-05-09T04:34:47.392Z,1652.00
2019-05-09T04:35:47.574Z,1688.00
2019-05-09T04:36:48.350Z,1732.00
2019-05-09T04:37:48.217Z,1772.00
2019-05-09T04:38:47.270Z,1800.00
2019-05-09T04:39:47.659Z,1832.00
2019-05-09T04:40:48.789Z,1848.00
2019-05-09T04:41:48.660Z,1864.00
2019-05-09T04:42:47.521Z,1892.00
2019-05-09T04:43:48.697Z,1920.00
2019-05-09T04:44:49.676Z,1940.00
2019-05-09T04:45:47.401Z,1968.00
2019-05-09T04:46:48.074Z,1988.00
2019-05-09T04:47:47.465Z,2004.00
2019-05-09T04:48:47.632Z,2012.00
2019-05-09T04:49:47.931Z,2052.00
2019-05-09T04:50:47.891Z,2084.00
2019-05-09T04:51:47.932Z,2116.00
2019-05-09T04:52:47.683Z,2140.00
2019-05-09T04:53:48.085Z,2164.00
2019-05-09T04:54:48.523Z,2184.00
2019-05-09T04:55:47.990Z,2208.00
2019-05-09T04:56:47.860Z,2232.00
2019-05-09T04:57:48.583Z,2260.00
2019-05-09T04:58:48.309Z,2280.00
2019-05-09T04:59:47.986Z,2308.00
2019-05-09T05:00:48.067Z,2336.00
2019-05-09T05:01:48.072Z,2360.00
2019-05-09T05:02:48.499Z,2384.00
2019-05-09T05:03:48.180Z,2416.00
2019-05-09T05:04:48.203Z,2444.00
2019-05-09T05:05:48.316Z,2472.00
2019-05-09T05:06:48.305Z,2504.00
2019-05-09T05:07:48.342Z,2528.00
2019-05-09T05:08:48.421Z,2544.00
2019-05-09T05:09:48.530Z,2556.00
2019-05-09T05:10:48.466Z,2576.00
2019-05-09T05:11:49.060Z,2596.00
2019-05-09T05:12:48.557Z,2616.00
2019-05-09T05:13:48.595Z,2656.00
2019-05-09T05:14:48.670Z,2716.00
2019-05-09T05:15:48.686Z,2776.00
2019-05-09T05:16:53.044Z,2744.00
2019-05-09T05:17:48.770Z,2720.00
2019-05-09T05:18:48.816Z,2760.00
2019-05-09T05:19:48.896Z,2780.00
2019-05-09T05:20:48.903Z,2808.00
2019-05-09T05:21:48.967Z,2820.00
2019-05-09T05:22:49.000Z,2828.00
2019-05-09T05:23:49.035Z,2844.00
2019-05-09T05:24:49.111Z,2856.00
2019-05-09T05:25:49.122Z,2880.00
2019-05-09T05:26:49.173Z,2892.00
2019-05-09T05:27:49.214Z,2912.00
2019-05-09T05:28:49.258Z,2952.00
2019-05-09T05:29:49.319Z,2976.00
2019-05-09T05:30:49.349Z,2996.00
2019-05-09T05:31:49.386Z,3020.00
2019-05-09T05:32:49.433Z,3040.00
2019-05-09T05:33:53.624Z,3064.00
2019-05-09T05:34:49.555Z,3088.00
2019-05-09T05:35:49.565Z,3116.00
2019-05-09T05:36:49.608Z,3144.00
2019-05-09T05:37:49.664Z,3172.00
2019-05-09T05:38:49.705Z,3192.00
2019-05-09T05:39:49.767Z,3216.00
2019-05-09T05:40:49.954Z,3240.00
2019-05-09T05:41:49.839Z,3268.00
2019-05-09T05:42:49.903Z,3308.00
2019-05-09T05:43:49.941Z,3352.00
2019-05-09T05:44:49.987Z,3388.00
2019-05-09T05:45:50.016Z,3412.00
2019-05-09T05:46:50.820Z,3424.00
2019-05-09T05:47:50.097Z,3444.00
2019-05-09T05:48:50.147Z,3464.00
2019-05-09T05:49:50.224Z,3496.00
2019-05-09T05:50:50.230Z,3516.00
2019-05-09T05:51:50.281Z,3516.00
2019-05-09T05:52:50.320Z,3536.00
2019-05-09T05:53:50.399Z,3568.00
2019-05-09T05:54:50.418Z,3600.00
2019-05-09T05:55:52.633Z,3624.00
2019-05-09T05:56:50.502Z,3612.00
2019-05-09T05:57:50.546Z,3608.00
2019-05-09T05:58:50.620Z,3628.00
2019-05-09T05:59:50.650Z,3632.00
2019-05-09T06:00:50.701Z,3660.00
2019-05-09T06:01:50.732Z,3688.00
2019-05-09T06:02:50.773Z,3728.00
2019-05-09T06:03:50.822Z,3788.00
2019-05-09T06:04:50.867Z,3844.00
2019-05-09T06:05:51.754Z,3848.00
2019-05-09T06:06:50.951Z,3848.00
2019-05-09T06:07:51.002Z,3884.00
2019-05-09T06:08:51.063Z,4084.00
2019-05-09T06:09:51.085Z,4392.00
2019-05-09T06:10:51.148Z,4604.00
2019-05-09T06:11:51.176Z,4580.00
2019-05-09T06:12:51.259Z,4620.00
2019-05-09T06:13:56.400Z,4460.00
2019-05-09T06:14:51.312Z,4280.00
2019-05-09T06:15:51.374Z,4144.00
2019-05-09T06:16:51.403Z,4096.00
2019-05-09T06:17:51.448Z,4108.00
2019-05-09T06:18:51.558Z,4108.00
2019-05-09T06:19:51.553Z,4088.00
2019-05-09T06:20:51.613Z,4060.00
2019-05-09T06:21:52.383Z,4044.00
2019-05-09T06:22:51.672Z,4036.00
2019-05-09T06:23:51.721Z,4076.00
2019-05-09T06:24:51.765Z,4112.00
2019-05-09T06:25:51.834Z,4120.00
2019-05-09T06:26:51.896Z,4140.00
2019-05-09T06:27:51.902Z,4204.00
2019-05-09T06:28:51.949Z,4292.00
2019-05-09T06:29:51.999Z,4376.00
2019-05-09T06:30:52.053Z,4440.00
2019-05-09T06:31:52.100Z,11200.00
2019-05-09T06:32:52.134Z,24032.00
2019-05-09T06:33:53.548Z,26912.00
2019-05-09T06:34:52.226Z,27360.00
2019-05-09T06:35:52.274Z,29760.00
2019-05-09T06:36:52.339Z,31392.00
2019-05-09T06:37:52.368Z,32288.00
2019-05-09T06:38:52.546Z,32672.00
2019-05-09T06:39:52.454Z,33824.00
2019-05-09T06:40:52.502Z,36640.00
2019-05-09T06:41:52.565Z,39424.00
2019-05-09T06:42:52.596Z,38688.00
2019-05-09T06:43:52.641Z,35136.00
2019-05-09T06:44:52.689Z,39904.00
2019-05-09T06:45:52.739Z,40256.00
2019-05-09T06:46:52.801Z,39520.00
2019-05-09T06:47:52.835Z,41184.00
2019-05-09T06:48:52.892Z,42144.00
2019-05-09T06:49:52.927Z,41728.00
2019-05-09T06:50:52.975Z,36224.00
2019-05-09T06:51:53.107Z,38528.00
2019-05-09T06:52:53.061Z,35936.00
2019-05-09T06:53:53.132Z,38048.00
2019-05-09T06:54:53.159Z,44320.00
2019-05-09T06:55:53.221Z,43968.00
2019-05-09T06:56:53.281Z,43520.00
2019-05-09T06:57:53.309Z,46720.00
2019-05-09T06:58:53.353Z,47136.00
2019-05-09T06:59:53.407Z,46144.00
2019-05-09T07:00:53.447Z,46720.00
2019-05-09T07:01:53.517Z,49024.00
2019-05-09T07:02:57.129Z,49056.00
2019-05-09T07:03:53.602Z,48704.00
2019-05-09T07:04:53.649Z,46720.00
2019-05-09T07:05:53.694Z,46496.00
2019-05-09T07:06:53.758Z,39872.00
2019-05-09T07:07:53.857Z,39232.00
2019-05-09T07:08:53.839Z,45344.00
2019-05-09T07:09:53.887Z,49440.00
2019-05-09T07:10:53.946Z,50368.00
2019-05-09T07:11:54.004Z,54432.00
2019-05-09T07:12:54.080Z,29472.00
2019-05-09T07:13:54.087Z,48352.00
2019-05-09T07:14:54.134Z,39936.00
2019-05-09T07:15:54.181Z,63136.00
2019-05-09T07:16:54.238Z,49888.00
2019-05-09T07:17:54.323Z,34048.00
2019-05-09T07:18:54.332Z,28512.00
2019-05-09T07:19:54.391Z,26336.00
2019-05-09T07:20:54.440Z,22560.00
2019-05-09T07:21:54.724Z,22688.00
2019-05-09T07:22:54.548Z,20384.00
2019-05-09T07:23:54.579Z,17760.00
2019-05-09T07:24:57.902Z,15660.00
2019-05-09T07:25:54.675Z,14336.00
2019-05-09T07:26:54.726Z,12980.00
2019-05-09T07:27:54.794Z,11912.00
2019-05-09T07:28:54.823Z,11536.00
2019-05-09T07:29:54.904Z,11816.00
2019-05-09T07:30:57.224Z,12548.00
2019-05-09T07:31:57.217Z,13640.00
2019-05-09T07:32:55.041Z,15144.00
2019-05-09T07:33:55.067Z,17248.00
2019-05-09T07:34:55.116Z,18880.00
2019-05-09T07:35:55.164Z,20000.00
2019-05-09T07:36:55.236Z,21472.00
2019-05-09T07:37:57.605Z,40864.00
2019-05-09T07:38:55.321Z,22688.00
2019-05-09T07:39:57.647Z,21792.00
2019-05-09T07:40:57.918Z,21664.00
2019-05-09T07:41:55.461Z,22432.00
2019-05-09T07:42:56.102Z,23744.00
2019-05-09T07:43:58.080Z,24608.00
2019-05-09T07:44:55.602Z,24256.00
2019-05-09T07:45:57.951Z,23904.00
2019-05-09T07:46:57.913Z,25280.00
2019-05-09T07:47:58.174Z,27264.00
2019-05-09T07:48:57.749Z,28128.00
2019-05-09T07:49:58.376Z,27616.00
2019-05-09T07:50:59.474Z,25280.00
2019-05-09T07:51:58.271Z,23360.00
2019-05-09T07:52:57.950Z,22720.00
2019-05-09T07:53:58.678Z,22016.00
2019-05-09T07:54:58.057Z,20800.00
2019-05-09T07:55:58.072Z,20192.00
2019-05-09T07:56:58.033Z,20608.00
2019-05-09T07:57:58.764Z,21696.00
2019-05-09T07:58:58.288Z,23712.00
2019-05-09T07:59:58.281Z,25664.00
2019-05-09T08:01:00.743Z,27104.00
2019-05-09T08:01:58.112Z,27584.00
2019-05-09T08:02:58.080Z,27840.00
2019-05-09T08:03:58.432Z,28192.00
2019-05-09T08:04:57.951Z,27616.00
2019-05-09T08:05:57.955Z,25408.00
2019-05-09T08:06:57.737Z,24640.00
2019-05-09T08:07:58.574Z,24000.00
2019-05-09T08:08:58.163Z,23296.00
2019-05-09T08:09:57.912Z,23392.00
2019-05-09T08:10:58.461Z,25728.00
2019-05-09T08:11:58.819Z,31072.00
2019-05-09T08:12:58.583Z,34912.00
2019-05-09T08:13:57.559Z,36544.00
2019-05-09T08:15:10.258Z,40544.00
2019-05-09T08:15:58.503Z,45056.00
2019-05-09T08:16:58.108Z,36832.00
2019-05-09T08:17:59.036Z,38912.00
2019-05-09T08:18:57.788Z,43296.00
2019-05-09T08:19:58.346Z,67168.00
2019-05-09T08:20:57.963Z,69536.00
2019-05-09T08:21:57.712Z,46528.00
2019-05-09T08:23:01.356Z,42624.00
2019-05-09T08:23:58.023Z,36704.00
2019-05-09T08:24:57.673Z,34432.00
2019-05-09T08:25:58.036Z,40160.00
2019-05-09T08:26:58.183Z,34720.00
2019-05-09T08:27:58.779Z,29568.00
2019-05-09T08:28:58.450Z,26560.00
2019-05-09T08:29:58.399Z,26592.00
2019-05-09T08:30:58.504Z,91040.00
2019-05-09T08:31:58.461Z,47968.00
2019-05-09T08:32:59.962Z,95392.00
2019-05-09T08:33:59.302Z,90880.00
2019-05-09T08:34:58.063Z,83808.00
2019-05-09T08:35:58.610Z,59296.00
2019-05-09T08:36:58.337Z,50592.00
2019-05-09T08:37:58.552Z,40768.00
2019-05-09T08:38:58.866Z,35936.00
2019-05-09T08:39:58.308Z,34816.00
2019-05-09T08:40:58.875Z,32288.00
2019-05-09T08:41:59.208Z,27904.00
2019-05-09T08:42:58.997Z,23648.00
2019-05-09T08:43:58.505Z,19904.00
2019-05-09T08:44:58.573Z,17152.00
2019-05-09T08:45:58.689Z,15624.00
2019-05-09T08:46:58.643Z,14972.00
2019-05-09T08:47:58.700Z,14916.00
2019-05-09T08:48:58.742Z,16116.00
2019-05-09T08:49:58.916Z,18496.00
2019-05-09T08:50:58.846Z,20960.00
2019-05-09T08:52:12.001Z,22496.00
2019-05-09T08:52:58.945Z,22016.00
2019-05-09T08:53:59.001Z,21280.00
2019-05-09T08:54:59.073Z,21088.00
2019-05-09T08:55:59.107Z,21312.00
2019-05-09T08:56:59.196Z,21696.00
2019-05-09T08:57:59.197Z,21984.00
2019-05-09T08:59:01.978Z,22432.00
2019-05-09T08:59:59.329Z,23200.00
2019-05-09T09:01:03.635Z,24096.00
2019-05-09T09:02:12.281Z,24800.00
2019-05-09T09:02:59.453Z,25312.00
2019-05-09T09:03:59.570Z,25408.00
2019-05-09T09:04:59.562Z,24512.00
2019-05-09T09:05:59.610Z,22496.00
2019-05-09T09:06:59.641Z,20064.00
2019-05-09T09:07:59.700Z,17952.00
2019-05-09T09:08:59.743Z,15780.00
2019-05-09T09:09:59.801Z,13908.00
2019-05-09T09:10:59.899Z,12392.00
2019-05-09T09:11:59.897Z,10980.00
2019-05-09T09:12:59.936Z,9640.00
2019-05-09T09:13:59.997Z,8372.00
2019-05-09T09:15:00.064Z,7452.00
2019-05-09T09:16:14.355Z,6744.00
2019-05-09T09:17:00.146Z,7256.00
2019-05-09T09:18:00.185Z,8364.00
2019-05-09T09:19:00.232Z,9340.00
2019-05-09T09:20:00.285Z,9740.00
2019-05-09T09:21:00.372Z,10140.00
2019-05-09T09:22:00.718Z,10324.00
2019-05-09T09:23:00.445Z,10500.00
2019-05-09T09:24:00.479Z,10660.00
2019-05-09T09:25:00.543Z,11052.00
2019-05-09T09:26:00.608Z,11716.00
2019-05-09T09:27:00.623Z,12596.00
2019-05-09T09:28:00.671Z,13332.00
2019-05-09T09:29:00.724Z,13696.00
2019-05-09T09:30:16.822Z,14556.00
2019-05-09T09:31:00.938Z,15580.00
2019-05-09T09:32:00.884Z,16448.00
2019-05-09T09:33:00.915Z,17344.00
2019-05-09T09:34:00.958Z,18336.00
2019-05-09T09:35:01.009Z,19936.00
2019-05-09T09:36:01.057Z,21952.00
2019-05-09T09:37:03.748Z,23584.00
2019-05-09T09:38:01.168Z,23616.00
2019-05-09T09:39:02.957Z,22976.00
2019-05-09T09:40:01.250Z,24608.00
2019-05-09T09:41:01.298Z,28928.00
2019-05-09T09:42:01.375Z,34848.00
2019-05-09T09:43:01.398Z,42944.00
2019-05-09T09:44:01.460Z,53280.00
2019-05-09T09:45:01.514Z,28448.00
2019-05-09T09:46:10.568Z,24128.00
2019-05-09T09:47:01.617Z,22528.00
2019-05-09T09:48:01.651Z,21056.00
2019-05-09T09:49:01.689Z,19200.00
2019-05-09T09:50:01.770Z,18272.00
2019-05-09T09:51:01.793Z,17856.00
2019-05-09T09:52:01.857Z,19104.00
2019-05-09T09:53:01.883Z,22016.00
2019-05-09T09:54:01.938Z,22752.00
2019-05-09T09:55:01.979Z,21600.00
2019-05-09T09:56:02.121Z,21696.00
2019-05-09T09:57:02.109Z,21440.00
2019-05-09T09:58:02.134Z,21216.00
2019-05-09T09:59:02.170Z,20704.00
2019-05-09T10:00:02.227Z,20640.00
2019-05-09T10:01:03.568Z,21728.00
2019-05-09T10:02:02.361Z,22624.00
2019-05-09T10:03:02.514Z,24000.00
2019-05-09T10:04:15.710Z,25536.00
2019-05-09T10:05:02.480Z,26016.00
2019-05-09T10:06:02.531Z,25696.00
2019-05-09T10:07:02.588Z,24576.00
2019-05-09T10:08:02.650Z,24672.00
2019-05-09T10:09:02.669Z,24800.00
2019-05-09T10:10:02.729Z,23328.00
2019-05-09T10:11:02.763Z,23072.00
2019-05-09T10:12:02.845Z,25344.00
2019-05-09T10:13:04.189Z,29024.00
2019-05-09T10:14:02.907Z,31232.00
2019-05-09T10:15:02.963Z,30688.00
2019-05-09T10:16:03.007Z,28928.00
2019-05-09T10:17:03.171Z,27744.00
2019-05-09T10:18:03.132Z,29568.00
2019-05-09T10:19:03.167Z,31744.00
2019-05-09T10:20:03.214Z,31488.00
2019-05-09T10:21:03.255Z,31648.00
2019-05-09T10:22:03.308Z,32544.00
2019-05-09T10:23:14.982Z,32736.00
2019-05-09T10:24:03.425Z,33728.00
2019-05-09T10:25:03.454Z,36928.00
2019-05-09T10:26:03.513Z,50112.00
2019-05-09T10:27:03.549Z,62144.00
2019-05-09T10:28:03.618Z,114784.00
2019-05-09T10:29:03.650Z,61024.00
2019-05-09T10:30:03.708Z,55872.00
2019-05-09T10:31:03.763Z,58848.00
2019-05-09T10:32:03.800Z,81664.00
2019-05-09T10:33:03.877Z,75936.00
2019-05-09T10:34:03.898Z,127104.00
2019-05-09T10:35:03.977Z,124544.00
2019-05-09T10:36:04.956Z,78080.00
2019-05-09T10:37:04.047Z,127360.00
2019-05-09T10:38:04.135Z,81792.00
2019-05-09T10:39:04.170Z,125792.00
2019-05-09T10:40:04.213Z,76832.00
2019-05-09T10:41:04.282Z,88512.00
2019-05-09T10:42:04.301Z,86784.00
2019-05-09T10:43:04.361Z,107936.00
2019-05-09T10:44:04.725Z,106080.00
2019-05-09T10:45:04.463Z,62080.00
2019-05-09T10:46:04.502Z,49984.00
2019-05-09T10:47:04.557Z,51456.00
2019-05-09T10:48:04.612Z,69984.00
2019-05-09T10:49:04.677Z,52576.00
2019-05-09T10:50:04.716Z,53728.00
2019-05-09T10:51:06.366Z,66304.00
2019-05-09T10:52:04.821Z,84448.00
2019-05-09T10:53:07.816Z,74720.00
2019-05-09T10:54:04.935Z,135072.00
2019-05-09T10:55:04.963Z,124960.00
2019-05-09T10:56:05.022Z,122400.00
2019-05-09T10:57:05.077Z,123552.00
2019-05-09T10:58:07.840Z,134976.00
2019-05-09T10:59:07.578Z,156352.00
2019-05-09T11:00:05.296Z,52960.00
2019-05-09T11:01:08.884Z,38752.00
2019-05-09T11:02:05.416Z,44928.00
2019-05-09T11:03:05.378Z,38304.00
2019-05-09T11:04:07.919Z,37856.00
2019-05-09T11:05:08.209Z,40672.00
2019-05-09T11:06:05.538Z,141056.00
2019-05-09T11:07:07.917Z,35744.00
2019-05-09T11:08:08.036Z,35936.00
2019-05-09T11:09:08.412Z,141536.00
2019-05-09T11:10:23.636Z,109280.00
2019-05-09T11:11:08.629Z,132384.00
2019-05-09T11:12:07.861Z,133056.00
2019-05-09T11:13:07.549Z,34464.00
2019-05-09T11:14:08.305Z,124832.00
2019-05-09T11:15:08.968Z,122656.00
2019-05-09T11:16:07.700Z,122272.00
2019-05-09T11:17:14.138Z,130528.00
2019-05-09T11:18:08.165Z,132128.00
2019-05-09T11:19:07.979Z,129056.00
2019-05-09T11:20:08.683Z,125408.00
2019-05-09T11:21:08.471Z,116544.00
2019-05-09T11:22:08.113Z,110336.00
2019-05-09T11:23:08.108Z,107392.00
2019-05-09T11:24:08.340Z,110656.00
2019-05-09T11:25:08.627Z,114432.00
2019-05-09T11:26:06.572Z,116320.00
2019-05-09T11:27:08.537Z,117504.00
2019-05-09T11:28:12.594Z,124736.00
2019-05-09T11:29:07.962Z,131616.00
2019-05-09T11:30:08.331Z,135040.00
2019-05-09T11:31:08.165Z,93088.00
2019-05-09T11:32:08.092Z,151680.00
2019-05-09T11:33:07.820Z,139392.00
2019-05-09T11:34:08.891Z,123520.00
2019-05-09T11:35:08.970Z,109056.00
2019-05-09T11:36:09.741Z,84160.00
2019-05-09T11:37:08.460Z,72160.00
2019-05-09T11:38:08.414Z,111968.00
2019-05-09T11:39:10.723Z,111680.00
2019-05-09T11:40:07.302Z,118176.00
2019-05-09T11:41:08.298Z,124352.00
2019-05-09T11:42:07.430Z,125024.00
2019-05-09T11:43:07.540Z,121024.00
2019-05-09T11:44:08.485Z,122656.00
2019-05-09T11:45:07.837Z,118944.00
2019-05-09T11:46:10.270Z,116128.00
2019-05-09T11:47:23.986Z,98240.00
2019-05-09T11:48:08.311Z,116512.00
2019-05-09T11:49:08.525Z,111648.00
2019-05-09T11:50:08.839Z,113408.00
2019-05-09T11:51:09.028Z,113632.00
2019-05-09T11:52:08.431Z,108896.00
2019-05-09T11:53:08.860Z,109312.00
2019-05-09T11:54:09.179Z,111744.00
2019-05-09T11:55:27.152Z,72736.00
2019-05-09T11:56:08.363Z,43104.00
2019-05-09T11:57:08.215Z,122304.00
2019-05-09T11:58:08.557Z,117472.00
2019-05-09T11:59:08.329Z,38720.00
2019-05-09T12:00:08.471Z,88800.00
2019-05-09T12:01:08.447Z,125280.00
2019-05-09T12:02:09.012Z,105984.00
2019-05-09T12:03:09.084Z,112192.00
2019-05-09T12:04:08.585Z,45472.00
2019-05-09T12:05:08.929Z,61344.00
2019-05-09T12:06:08.718Z,33504.00
2019-05-09T12:07:08.745Z,27328.00
2019-05-09T12:08:08.856Z,21440.00
2019-05-09T12:09:09.010Z,20032.00
2019-05-09T12:10:08.917Z,21760.00
2019-05-09T12:11:08.993Z,21376.00
2019-05-09T12:12:09.010Z,19712.00
2019-05-09T12:13:09.066Z,22080.00
2019-05-09T12:14:09.147Z,44288.00
2019-05-09T12:15:09.172Z,64768.00